sensor_id;sensor_type;location;lat;lon;timestamp;P1;durP1;ratioP1;P2;durP2;ratioP2
14074;SDS011;12831;52.392;13.066;2023-12-28T00:00:50;4.28;;;2.47;;
14074;SDS011;12831;52.392;13.066;2023-12-28T00:03:16;4.95;;;2.80;;
14074;SDS011;12831;52.392;13.066;2023-12-28T00:05:42;6.57;;;2.92;;
14074;SDS011;12831;52.392;13.066;2023-12-28T00:08:08;11.70;;;3.50;;
14074;SDS011;12831;52.392;13.066;2023-12-28T00:10:34;6.65;;;3.10;;
14074;SDS011;12831;52.392;13.066;2023-12-28T00:13:02;5.50;;;3.45;;
14074;SDS011;12831;52.392;13.066;2023-12-28T00:15:28;6.47;;;3.08;;
14074;SDS011;12831;52.392;13.066;2023-12-28T00:17:54;8.05;;;3.72;;
14074;SDS011;12831;52.392;13.066;2023-12-28T00:20:20;5.70;;;3.25;;
14074;SDS011;12831;52.392;13.066;2023-12-28T00:22:46;9.65;;;3.45;;
14074;SDS011;12831;52.392;13.066;2023-12-28T00:25:12;5.85;;;2.75;;
14074;SDS011;12831;52.392;13.066;2023-12-28T00:27:38;4.40;;;2.78;;
14074;SDS011;12831;52.392;13.066;2023-12-28T00:30:05;5.63;;;2.78;;
14074;SDS011;12831;52.392;13.066;2023-12-28T00:32:31;6.28;;;2.88;;
14074;SDS011;12831;52.392;13.066;2023-12-28T00:34:57;7.00;;;2.47;;
14074;SDS011;12831;52.392;13.066;2023-12-28T00:37:23;4.50;;;2.45;;
14074;SDS011;12831;52.392;13.066;2023-12-28T00:39:49;6.80;;;2.72;;
14074;SDS011;12831;52.392;13.066;2023-12-28T00:42:15;7.00;;;2.63;;
14074;SDS011;12831;52.392;13.066;2023-12-28T00:44:41;6.05;;;2.50;;
14074;SDS011;12831;52.392;13.066;2023-12-28T00:47:07;6.15;;;2.30;;
14074;SDS011;12831;52.392;13.066;2023-12-28T00:49:33;9.95;;;3.05;;
14074;SDS011;12831;52.392;13.066;2023-12-28T00:51:59;5.18;;;2.08;;
14074;SDS011;12831;52.392;13.066;2023-12-28T00:54:25;5.22;;;2.47;;
14074;SDS011;12831;52.392;13.066;2023-12-28T00:56:51;7.45;;;2.15;;
14074;SDS011;12831;52.392;13.066;2023-12-28T00:59:16;4.38;;;2.70;;
14074;SDS011;12831;52.392;13.066;2023-12-28T01:01:42;6.53;;;2.72;;
14074;SDS011;12831;52.392;13.066;2023-12-28T01:04:08;3.80;;;2.10;;
14074;SDS011;12831;52.392;13.066;2023-12-28T01:06:34;6.60;;;2.25;;
14074;SDS011;12831;52.392;13.066;2023-12-28T01:09:00;5.00;;;1.92;;
14074;SDS011;12831;52.392;13.066;2023-12-28T01:11:26;4.78;;;2.60;;
14074;SDS011;12831;52.392;13.066;2023-12-28T01:13:57;5.25;;;2.45;;
14074;SDS011;12831;52.392;13.066;2023-12-28T01:16:24;8.30;;;3.03;;
14074;SDS011;12831;52.392;13.066;2023-12-28T01:18:50;7.70;;;2.97;;
14074;SDS011;12831;52.392;13.066;2023-12-28T01:21:16;5.65;;;2.55;;
14074;SDS011;12831;52.392;13.066;2023-12-28T01:23:43;6.28;;;2.35;;
14074;SDS011;12831;52.392;13.066;2023-12-28T01:26:15;4.75;;;1.70;;
14074;SDS011;12831;52.392;13.066;2023-12-28T01:28:40;5.28;;;2.42;;
14074;SDS011;12831;52.392;13.066;2023-12-28T01:31:06;5.60;;;2.60;;
14074;SDS011;12831;52.392;13.066;2023-12-28T01:33:32;3.47;;;2.00;;
14074;SDS011;12831;52.392;13.066;2023-12-28T01:35:58;4.00;;;1.92;;
14074;SDS011;12831;52.392;13.066;2023-12-28T01:38:24;7.35;;;2.22;;
14074;SDS011;12831;52.392;13.066;2023-12-28T01:40:50;4.35;;;2.00;;
14074;SDS011;12831;52.392;13.066;2023-12-28T01:43:17;4.18;;;1.60;;
14074;SDS011;12831;52.392;13.066;2023-12-28T01:45:43;5.60;;;2.10;;
14074;SDS011;12831;52.392;13.066;2023-12-28T01:48:09;3.10;;;1.83;;
14074;SDS011;12831;52.392;13.066;2023-12-28T01:50:35;3.13;;;1.88;;
14074;SDS011;12831;52.392;13.066;2023-12-28T01:53:01;6.35;;;1.60;;
14074;SDS011;12831;52.392;13.066;2023-12-28T01:55:28;2.92;;;1.42;;
14074;SDS011;12831;52.392;13.066;2023-12-28T01:57:55;3.67;;;1.65;;
14074;SDS011;12831;52.392;13.066;2023-12-28T02:00:23;3.72;;;2.13;;
14074;SDS011;12831;52.392;13.066;2023-12-28T02:02:50;3.63;;;1.65;;
14074;SDS011;12831;52.392;13.066;2023-12-28T02:05:16;2.72;;;1.80;;
14074;SDS011;12831;52.392;13.066;2023-12-28T02:07:42;3.35;;;1.38;;
14074;SDS011;12831;52.392;13.066;2023-12-28T02:10:08;5.70;;;1.48;;
14074;SDS011;12831;52.392;13.066;2023-12-28T02:12:34;3.45;;;1.50;;
14074;SDS011;12831;52.392;13.066;2023-12-28T02:15:00;4.15;;;1.63;;
14074;SDS011;12831;52.392;13.066;2023-12-28T02:17:51;2.95;;;1.20;;
14074;SDS011;12831;52.392;13.066;2023-12-28T02:20:12;2.17;;;1.10;;
14074;SDS011;12831;52.392;13.066;2023-12-28T02:22:38;2.42;;;1.13;;
14074;SDS011;12831;52.392;13.066;2023-12-28T02:25:06;2.03;;;1.20;;
14074;SDS011;12831;52.392;13.066;2023-12-28T02:27:33;5.35;;;1.65;;
14074;SDS011;12831;52.392;13.066;2023-12-28T02:29:59;3.92;;;1.70;;
14074;SDS011;12831;52.392;13.066;2023-12-28T02:32:32;4.15;;;1.88;;
14074;SDS011;12831;52.392;13.066;2023-12-28T02:35:02;4.10;;;1.40;;
14074;SDS011;12831;52.392;13.066;2023-12-28T02:37:30;2.10;;;1.25;;
14074;SDS011;12831;52.392;13.066;2023-12-28T02:39:56;5.25;;;1.42;;
14074;SDS011;12831;52.392;13.066;2023-12-28T02:42:22;1.85;;;1.20;;
14074;SDS011;12831;52.392;13.066;2023-12-28T02:44:48;4.85;;;1.55;;
14074;SDS011;12831;52.392;13.066;2023-12-28T02:47:15;2.85;;;1.23;;
14074;SDS011;12831;52.392;13.066;2023-12-28T02:49:41;2.03;;;1.00;;
14074;SDS011;12831;52.392;13.066;2023-12-28T02:52:07;2.42;;;1.25;;
14074;SDS011;12831;52.392;13.066;2023-12-28T02:54:33;1.63;;;0.90;;
14074;SDS011;12831;52.392;13.066;2023-12-28T02:56:59;3.35;;;1.38;;
14074;SDS011;12831;52.392;13.066;2023-12-28T02:59:25;4.13;;;1.13;;
14074;SDS011;12831;52.392;13.066;2023-12-28T03:01:50;3.45;;;1.17;;
14074;SDS011;12831;52.392;13.066;2023-12-28T03:04:16;2.28;;;1.10;;
14074;SDS011;12831;52.392;13.066;2023-12-28T03:06:42;2.03;;;1.20;;
14074;SDS011;12831;52.392;13.066;2023-12-28T03:09:11;2.80;;;1.48;;
14074;SDS011;12831;52.392;13.066;2023-12-28T03:11:37;1.92;;;1.10;;
14074;SDS011;12831;52.392;13.066;2023-12-28T03:14:06;2.00;;;1.00;;
14074;SDS011;12831;52.392;13.066;2023-12-28T03:16:32;5.20;;;1.30;;
14074;SDS011;12831;52.392;13.066;2023-12-28T03:19:00;2.13;;;1.00;;
14074;SDS011;12831;52.392;13.066;2023-12-28T03:21:26;3.63;;;1.17;;
14074;SDS011;12831;52.392;13.066;2023-12-28T03:23:52;2.33;;;1.25;;
14074;SDS011;12831;52.392;13.066;2023-12-28T03:26:19;2.58;;;1.65;;
14074;SDS011;12831;52.392;13.066;2023-12-28T03:28:44;4.57;;;1.38;;
14074;SDS011;12831;52.392;13.066;2023-12-28T03:31:10;3.72;;;1.20;;
14074;SDS011;12831;52.392;13.066;2023-12-28T03:33:36;2.00;;;1.08;;
14074;SDS011;12831;52.392;13.066;2023-12-28T03:36:02;2.13;;;0.85;;
14074;SDS011;12831;52.392;13.066;2023-12-28T03:38:28;3.10;;;1.33;;
14074;SDS011;12831;52.392;13.066;2023-12-28T03:40:54;3.35;;;1.02;;
14074;SDS011;12831;52.392;13.066;2023-12-28T03:43:20;2.45;;;1.75;;
14074;SDS011;12831;52.392;13.066;2023-12-28T03:45:46;3.50;;;1.40;;
14074;SDS011;12831;52.392;13.066;2023-12-28T03:48:12;3.38;;;1.20;;
14074;SDS011;12831;52.392;13.066;2023-12-28T03:50:38;2.53;;;1.40;;
14074;SDS011;12831;52.392;13.066;2023-12-28T03:53:04;1.40;;;0.90;;
14074;SDS011;12831;52.392;13.066;2023-12-28T03:55:30;2.78;;;1.50;;
14074;SDS011;12831;52.392;13.066;2023-12-28T03:57:55;2.83;;;1.40;;
14074;SDS011;12831;52.392;13.066;2023-12-28T04:00:22;1.75;;;1.17;;
14074;SDS011;12831;52.392;13.066;2023-12-28T04:02:49;2.13;;;1.35;;
14074;SDS011;12831;52.392;13.066;2023-12-28T04:05:17;2.50;;;1.20;;
14074;SDS011;12831;52.392;13.066;2023-12-28T04:07:42;2.20;;;1.08;;
14074;SDS011;12831;52.392;13.066;2023-12-28T04:10:09;2.97;;;1.23;;
14074;SDS011;12831;52.392;13.066;2023-12-28T04:12:35;1.98;;;1.10;;
14074;SDS011;12831;52.392;13.066;2023-12-28T04:15:03;3.70;;;1.30;;
14074;SDS011;12831;52.392;13.066;2023-12-28T04:17:28;4.32;;;1.38;;
14074;SDS011;12831;52.392;13.066;2023-12-28T04:19:54;3.00;;;1.23;;
14074;SDS011;12831;52.392;13.066;2023-12-28T04:22:20;1.80;;;1.35;;
14074;SDS011;12831;52.392;13.066;2023-12-28T04:24:46;2.67;;;1.30;;
14074;SDS011;12831;52.392;13.066;2023-12-28T04:27:12;3.28;;;1.60;;
14074;SDS011;12831;52.392;13.066;2023-12-28T04:29:38;2.47;;;1.15;;
14074;SDS011;12831;52.392;13.066;2023-12-28T04:32:04;1.95;;;1.25;;
14074;SDS011;12831;52.392;13.066;2023-12-28T04:34:30;2.42;;;1.30;;
14074;SDS011;12831;52.392;13.066;2023-12-28T04:36:56;2.60;;;1.30;;
14074;SDS011;12831;52.392;13.066;2023-12-28T04:39:22;3.22;;;1.20;;
14074;SDS011;12831;52.392;13.066;2023-12-28T04:41:48;3.85;;;1.30;;
14074;SDS011;12831;52.392;13.066;2023-12-28T04:44:17;4.07;;;1.20;;
14074;SDS011;12831;52.392;13.066;2023-12-28T04:46:43;3.55;;;0.90;;
14074;SDS011;12831;52.392;13.066;2023-12-28T04:49:11;2.85;;;1.17;;
14074;SDS011;12831;52.392;13.066;2023-12-28T04:51:41;2.20;;;1.20;;
14074;SDS011;12831;52.392;13.066;2023-12-28T04:54:07;3.72;;;1.10;;
14074;SDS011;12831;52.392;13.066;2023-12-28T04:56:33;2.38;;;0.98;;
14074;SDS011;12831;52.392;13.066;2023-12-28T04:58:59;2.58;;;1.00;;
14074;SDS011;12831;52.392;13.066;2023-12-28T05:01:25;4.65;;;1.40;;
14074;SDS011;12831;52.392;13.066;2023-12-28T05:03:51;1.73;;;1.13;;
14074;SDS011;12831;52.392;13.066;2023-12-28T05:06:17;6.15;;;1.20;;
14074;SDS011;12831;52.392;13.066;2023-12-28T05:08:43;3.25;;;1.40;;
14074;SDS011;12831;52.392;13.066;2023-12-28T05:11:09;2.85;;;1.63;;
14074;SDS011;12831;52.392;13.066;2023-12-28T05:13:34;3.30;;;1.10;;
14074;SDS011;12831;52.392;13.066;2023-12-28T05:16:00;2.83;;;1.40;;
14074;SDS011;12831;52.392;13.066;2023-12-28T05:18:26;1.90;;;0.95;;
14074;SDS011;12831;52.392;13.066;2023-12-28T05:20:52;4.30;;;1.48;;
14074;SDS011;12831;52.392;13.066;2023-12-28T05:23:18;2.53;;;1.20;;
14074;SDS011;12831;52.392;13.066;2023-12-28T05:25:44;1.83;;;1.02;;
14074;SDS011;12831;52.392;13.066;2023-12-28T05:28:11;2.97;;;1.63;;
14074;SDS011;12831;52.392;13.066;2023-12-28T05:30:37;1.88;;;1.10;;
14074;SDS011;12831;52.392;13.066;2023-12-28T05:33:03;3.42;;;1.45;;
14074;SDS011;12831;52.392;13.066;2023-12-28T05:35:29;2.15;;;0.90;;
14074;SDS011;12831;52.392;13.066;2023-12-28T05:37:55;3.55;;;1.05;;
14074;SDS011;12831;52.392;13.066;2023-12-28T05:40:21;4.75;;;1.63;;
14074;SDS011;12831;52.392;13.066;2023-12-28T05:42:47;2.03;;;0.90;;
14074;SDS011;12831;52.392;13.066;2023-12-28T05:45:13;2.53;;;1.45;;
14074;SDS011;12831;52.392;13.066;2023-12-28T05:47:39;2.38;;;1.35;;
14074;SDS011;12831;52.392;13.066;2023-12-28T05:50:05;2.90;;;1.40;;
14074;SDS011;12831;52.392;13.066;2023-12-28T05:52:31;3.25;;;1.23;;
14074;SDS011;12831;52.392;13.066;2023-12-28T05:54:57;2.40;;;1.17;;
14074;SDS011;12831;52.392;13.066;2023-12-28T05:57:23;3.30;;;1.85;;
14074;SDS011;12831;52.392;13.066;2023-12-28T05:59:50;2.72;;;1.35;;
14074;SDS011;12831;52.392;13.066;2023-12-28T06:02:16;3.92;;;1.50;;
14074;SDS011;12831;52.392;13.066;2023-12-28T06:04:42;4.00;;;1.20;;
14074;SDS011;12831;52.392;13.066;2023-12-28T06:07:08;3.30;;;1.23;;
14074;SDS011;12831;52.392;13.066;2023-12-28T06:09:34;1.90;;;1.13;;
14074;SDS011;12831;52.392;13.066;2023-12-28T06:12:02;2.92;;;1.27;;
14074;SDS011;12831;52.392;13.066;2023-12-28T06:14:28;2.38;;;1.15;;
14074;SDS011;12831;52.392;13.066;2023-12-28T06:16:54;2.67;;;1.38;;
14074;SDS011;12831;52.392;13.066;2023-12-28T06:19:20;2.40;;;0.93;;
14074;SDS011;12831;52.392;13.066;2023-12-28T06:21:46;1.77;;;0.95;;
14074;SDS011;12831;52.392;13.066;2023-12-28T06:24:12;2.92;;;1.00;;
14074;SDS011;12831;52.392;13.066;2023-12-28T06:26:39;3.30;;;1.05;;
14074;SDS011;12831;52.392;13.066;2023-12-28T06:29:04;3.30;;;1.55;;
14074;SDS011;12831;52.392;13.066;2023-12-28T06:31:30;2.35;;;1.08;;
14074;SDS011;12831;52.392;13.066;2023-12-28T06:33:57;5.07;;;1.58;;
14074;SDS011;12831;52.392;13.066;2023-12-28T06:36:23;4.85;;;1.40;;
14074;SDS011;12831;52.392;13.066;2023-12-28T06:38:48;2.05;;;1.05;;
14074;SDS011;12831;52.392;13.066;2023-12-28T06:41:14;2.72;;;1.38;;
14074;SDS011;12831;52.392;13.066;2023-12-28T06:43:41;2.50;;;1.02;;
14074;SDS011;12831;52.392;13.066;2023-12-28T06:46:06;2.15;;;1.00;;
14074;SDS011;12831;52.392;13.066;2023-12-28T06:48:33;3.90;;;2.30;;
14074;SDS011;12831;52.392;13.066;2023-12-28T06:50:59;4.35;;;1.50;;
14074;SDS011;12831;52.392;13.066;2023-12-28T06:53:25;2.25;;;1.13;;
14074;SDS011;12831;52.392;13.066;2023-12-28T06:55:51;5.13;;;1.55;;
14074;SDS011;12831;52.392;13.066;2023-12-28T06:58:17;2.38;;;1.35;;
14074;SDS011;12831;52.392;13.066;2023-12-28T07:00:43;2.90;;;1.30;;
14074;SDS011;12831;52.392;13.066;2023-12-28T07:03:10;2.00;;;1.08;;
14074;SDS011;12831;52.392;13.066;2023-12-28T07:05:36;3.15;;;1.77;;
14074;SDS011;12831;52.392;13.066;2023-12-28T07:08:02;4.38;;;1.23;;
14074;SDS011;12831;52.392;13.066;2023-12-28T07:10:28;2.58;;;1.20;;
14074;SDS011;12831;52.392;13.066;2023-12-28T07:12:54;2.15;;;1.30;;
14074;SDS011;12831;52.392;13.066;2023-12-28T07:15:20;3.17;;;1.33;;
14074;SDS011;12831;52.392;13.066;2023-12-28T07:17:45;2.80;;;1.48;;
14074;SDS011;12831;52.392;13.066;2023-12-28T07:20:12;2.58;;;1.33;;
14074;SDS011;12831;52.392;13.066;2023-12-28T07:22:37;4.13;;;1.38;;
14074;SDS011;12831;52.392;13.066;2023-12-28T07:25:06;2.00;;;1.20;;
14074;SDS011;12831;52.392;13.066;2023-12-28T07:27:33;2.97;;;1.20;;
14074;SDS011;12831;52.392;13.066;2023-12-28T07:30:00;3.70;;;2.08;;
14074;SDS011;12831;52.392;13.066;2023-12-28T07:32:26;3.03;;;1.50;;
14074;SDS011;12831;52.392;13.066;2023-12-28T07:34:53;3.50;;;1.67;;
14074;SDS011;12831;52.392;13.066;2023-12-28T07:37:18;2.72;;;1.35;;
14074;SDS011;12831;52.392;13.066;2023-12-28T07:39:44;3.13;;;1.42;;
14074;SDS011;12831;52.392;13.066;2023-12-28T07:42:10;4.50;;;1.85;;
14074;SDS011;12831;52.392;13.066;2023-12-28T07:44:41;3.35;;;1.33;;
14074;SDS011;12831;52.392;13.066;2023-12-28T07:47:07;3.75;;;1.98;;
14074;SDS011;12831;52.392;13.066;2023-12-28T07:49:35;2.70;;;1.48;;
14074;SDS011;12831;52.392;13.066;2023-12-28T07:52:01;2.90;;;1.42;;
14074;SDS011;12831;52.392;13.066;2023-12-28T07:54:28;3.35;;;1.38;;
14074;SDS011;12831;52.392;13.066;2023-12-28T07:56:54;5.00;;;1.80;;
14074;SDS011;12831;52.392;13.066;2023-12-28T07:59:20;3.35;;;1.33;;
14074;SDS011;12831;52.392;13.066;2023-12-28T08:01:46;3.13;;;1.35;;
14074;SDS011;12831;52.392;13.066;2023-12-28T08:04:12;6.00;;;1.67;;
14074;SDS011;12831;52.392;13.066;2023-12-28T08:06:38;4.55;;;1.17;;
14074;SDS011;12831;52.392;13.066;2023-12-28T08:09:04;2.90;;;1.13;;
14074;SDS011;12831;52.392;13.066;2023-12-28T08:11:30;4.28;;;1.60;;
14074;SDS011;12831;52.392;13.066;2023-12-28T08:13:56;3.78;;;1.48;;
14074;SDS011;12831;52.392;13.066;2023-12-28T08:16:22;3.15;;;1.65;;
14074;SDS011;12831;52.392;13.066;2023-12-28T08:18:48;3.83;;;1.70;;
14074;SDS011;12831;52.392;13.066;2023-12-28T08:21:14;4.22;;;1.60;;
14074;SDS011;12831;52.392;13.066;2023-12-28T08:23:40;4.18;;;2.03;;
14074;SDS011;12831;52.392;13.066;2023-12-28T08:26:06;2.88;;;1.83;;
14074;SDS011;12831;52.392;13.066;2023-12-28T08:28:32;4.20;;;2.05;;
14074;SDS011;12831;52.392;13.066;2023-12-28T08:30:58;3.25;;;1.70;;
14074;SDS011;12831;52.392;13.066;2023-12-28T08:33:24;3.35;;;1.60;;
14074;SDS011;12831;52.392;13.066;2023-12-28T08:35:51;2.42;;;1.42;;
14074;SDS011;12831;52.392;13.066;2023-12-28T08:38:17;3.90;;;1.58;;
14074;SDS011;12831;52.392;13.066;2023-12-28T08:40:43;7.07;;;1.92;;
14074;SDS011;12831;52.392;13.066;2023-12-28T08:43:15;6.10;;;2.28;;
14074;SDS011;12831;52.392;13.066;2023-12-28T08:45:41;3.60;;;1.98;;
14074;SDS011;12831;52.392;13.066;2023-12-28T08:48:07;2.78;;;1.80;;
14074;SDS011;12831;52.392;13.066;2023-12-28T08:50:33;3.05;;;1.52;;
14074;SDS011;12831;52.392;13.066;2023-12-28T08:52:59;4.05;;;1.77;;
14074;SDS011;12831;52.392;13.066;2023-12-28T08:55:25;5.18;;;2.25;;
14074;SDS011;12831;52.392;13.066;2023-12-28T08:57:51;4.13;;;2.03;;
14074;SDS011;12831;52.392;13.066;2023-12-28T09:00:17;3.75;;;2.22;;
14074;SDS011;12831;52.392;13.066;2023-12-28T09:02:44;2.60;;;1.33;;
14074;SDS011;12831;52.392;13.066;2023-12-28T09:05:10;5.75;;;1.50;;
14074;SDS011;12831;52.392;13.066;2023-12-28T09:07:36;3.50;;;1.50;;
14074;SDS011;12831;52.392;13.066;2023-12-28T09:10:10;3.60;;;1.58;;
14074;SDS011;12831;52.392;13.066;2023-12-28T09:12:36;3.25;;;2.22;;
14074;SDS011;12831;52.392;13.066;2023-12-28T09:15:18;4.20;;;2.17;;
14074;SDS011;12831;52.392;13.066;2023-12-28T09:17:44;5.47;;;2.33;;
14074;SDS011;12831;52.392;13.066;2023-12-28T09:20:10;4.55;;;2.20;;
14074;SDS011;12831;52.392;13.066;2023-12-28T09:22:37;3.92;;;1.58;;
14074;SDS011;12831;52.392;13.066;2023-12-28T09:25:03;3.72;;;1.95;;
14074;SDS011;12831;52.392;13.066;2023-12-28T09:27:30;3.85;;;2.25;;
14074;SDS011;12831;52.392;13.066;2023-12-28T09:29:59;3.20;;;1.55;;
14074;SDS011;12831;52.392;13.066;2023-12-28T09:32:25;2.95;;;1.85;;
14074;SDS011;12831;52.392;13.066;2023-12-28T09:34:51;4.18;;;1.75;;
14074;SDS011;12831;52.392;13.066;2023-12-28T09:37:17;5.03;;;1.65;;
14074;SDS011;12831;52.392;13.066;2023-12-28T09:39:43;5.63;;;2.38;;
14074;SDS011;12831;52.392;13.066;2023-12-28T09:42:14;3.85;;;2.25;;
14074;SDS011;12831;52.392;13.066;2023-12-28T09:44:54;2.40;;;1.45;;
14074;SDS011;12831;52.392;13.066;2023-12-28T09:47:20;4.60;;;1.92;;
14074;SDS011;12831;52.392;13.066;2023-12-28T09:49:46;5.57;;;2.03;;
14074;SDS011;12831;52.392;13.066;2023-12-28T09:52:13;4.60;;;1.85;;
14074;SDS011;12831;52.392;13.066;2023-12-28T09:54:39;5.88;;;2.13;;
14074;SDS011;12831;52.392;13.066;2023-12-28T09:57:05;3.05;;;1.80;;
14074;SDS011;12831;52.392;13.066;2023-12-28T09:59:31;3.00;;;1.63;;
14074;SDS011;12831;52.392;13.066;2023-12-28T10:01:58;4.25;;;1.45;;
14074;SDS011;12831;52.392;13.066;2023-12-28T10:04:26;3.92;;;1.63;;
14074;SDS011;12831;52.392;13.066;2023-12-28T10:06:54;3.83;;;2.17;;
14074;SDS011;12831;52.392;13.066;2023-12-28T10:09:21;4.50;;;2.17;;
14074;SDS011;12831;52.392;13.066;2023-12-28T10:11:47;4.90;;;2.00;;
14074;SDS011;12831;52.392;13.066;2023-12-28T10:14:15;6.35;;;1.98;;
14074;SDS011;12831;52.392;13.066;2023-12-28T10:16:42;3.33;;;1.60;;
14074;SDS011;12831;52.392;13.066;2023-12-28T10:19:08;4.70;;;2.00;;
14074;SDS011;12831;52.392;13.066;2023-12-28T10:21:34;6.30;;;2.30;;
14074;SDS011;12831;52.392;13.066;2023-12-28T10:24:01;4.30;;;2.35;;
14074;SDS011;12831;52.392;13.066;2023-12-28T10:26:27;3.65;;;2.10;;
14074;SDS011;12831;52.392;13.066;2023-12-28T10:29:00;3.83;;;2.20;;
14074;SDS011;12831;52.392;13.066;2023-12-28T10:31:29;3.85;;;1.90;;
14074;SDS011;12831;52.392;13.066;2023-12-28T10:33:59;4.93;;;2.28;;
14074;SDS011;12831;52.392;13.066;2023-12-28T10:36:28;3.42;;;1.67;;
14074;SDS011;12831;52.392;13.066;2023-12-28T10:38:54;3.03;;;1.77;;
14074;SDS011;12831;52.392;13.066;2023-12-28T10:41:20;3.00;;;2.17;;
14074;SDS011;12831;52.392;13.066;2023-12-28T10:46:55;4.40;;;2.05;;
14074;SDS011;12831;52.392;13.066;2023-12-28T10:49:23;4.28;;;2.13;;
14074;SDS011;12831;52.392;13.066;2023-12-28T10:51:52;4.32;;;1.75;;
14074;SDS011;12831;52.392;13.066;2023-12-28T10:59:44;5.10;;;2.45;;
14074;SDS011;12831;52.392;13.066;2023-12-28T11:02:11;5.30;;;2.63;;
14074;SDS011;12831;52.392;13.066;2023-12-28T11:04:58;3.70;;;2.00;;
14074;SDS011;12831;52.392;13.066;2023-12-28T11:07:25;4.85;;;2.67;;
14074;SDS011;12831;52.392;13.066;2023-12-28T11:09:58;4.70;;;2.08;;
14074;SDS011;12831;52.392;13.066;2023-12-28T11:12:26;5.40;;;2.17;;
14074;SDS011;12831;52.392;13.066;2023-12-28T11:15:08;4.80;;;2.20;;
14074;SDS011;12831;52.392;13.066;2023-12-28T11:17:36;4.28;;;1.90;;
14074;SDS011;12831;52.392;13.066;2023-12-28T11:20:03;4.57;;;2.15;;
14074;SDS011;12831;52.392;13.066;2023-12-28T11:22:31;4.68;;;2.22;;
14074;SDS011;12831;52.392;13.066;2023-12-28T11:24:58;2.45;;;1.48;;
14074;SDS011;12831;52.392;13.066;2023-12-28T11:27:24;10.60;;;2.47;;
14074;SDS011;12831;52.392;13.066;2023-12-28T11:29:51;2.92;;;1.52;;
14074;SDS011;12831;52.392;13.066;2023-12-28T11:32:19;4.03;;;1.77;;
14074;SDS011;12831;52.392;13.066;2023-12-28T11:34:45;3.60;;;1.90;;
14074;SDS011;12831;52.392;13.066;2023-12-28T11:37:16;3.33;;;1.90;;
14074;SDS011;12831;52.392;13.066;2023-12-28T11:39:45;3.08;;;1.40;;
14074;SDS011;12831;52.392;13.066;2023-12-28T11:42:11;2.50;;;1.50;;
14074;SDS011;12831;52.392;13.066;2023-12-28T11:44:45;5.43;;;1.65;;
14074;SDS011;12831;52.392;13.066;2023-12-28T11:47:15;5.05;;;1.52;;
14074;SDS011;12831;52.392;13.066;2023-12-28T11:49:42;2.35;;;1.38;;
14074;SDS011;12831;52.392;13.066;2023-12-28T11:52:09;3.65;;;1.80;;
14074;SDS011;12831;52.392;13.066;2023-12-28T11:54:37;6.82;;;1.48;;
14074;SDS011;12831;52.392;13.066;2023-12-28T11:57:03;4.88;;;2.17;;
14074;SDS011;12831;52.392;13.066;2023-12-28T11:59:31;6.50;;;1.65;;
14074;SDS011;12831;52.392;13.066;2023-12-28T12:01:57;4.78;;;2.08;;
14074;SDS011;12831;52.392;13.066;2023-12-28T12:04:23;2.65;;;1.48;;
14074;SDS011;12831;52.392;13.066;2023-12-28T12:06:49;2.90;;;1.52;;
14074;SDS011;12831;52.392;13.066;2023-12-28T12:09:17;3.20;;;1.63;;
14074;SDS011;12831;52.392;13.066;2023-12-28T12:11:48;3.63;;;1.88;;
14074;SDS011;12831;52.392;13.066;2023-12-28T12:14:15;4.85;;;1.83;;
14074;SDS011;12831;52.392;13.066;2023-12-28T12:16:41;4.97;;;1.90;;
14074;SDS011;12831;52.392;13.066;2023-12-28T12:19:07;3.83;;;1.65;;
14074;SDS011;12831;52.392;13.066;2023-12-28T12:21:34;3.75;;;2.67;;
14074;SDS011;12831;52.392;13.066;2023-12-28T12:24:00;3.28;;;1.63;;
14074;SDS011;12831;52.392;13.066;2023-12-28T12:26:30;4.40;;;1.73;;
14074;SDS011;12831;52.392;13.066;2023-12-28T12:28:57;3.17;;;1.70;;
14074;SDS011;12831;52.392;13.066;2023-12-28T12:31:23;4.25;;;1.77;;
14074;SDS011;12831;52.392;13.066;2023-12-28T12:33:49;5.25;;;1.48;;
14074;SDS011;12831;52.392;13.066;2023-12-28T12:36:17;4.20;;;1.70;;
14074;SDS011;12831;52.392;13.066;2023-12-28T12:38:43;3.85;;;1.55;;
14074;SDS011;12831;52.392;13.066;2023-12-28T12:41:12;5.88;;;1.65;;
14074;SDS011;12831;52.392;13.066;2023-12-28T12:43:39;2.75;;;1.25;;
14074;SDS011;12831;52.392;13.066;2023-12-28T12:46:06;5.90;;;2.00;;
14074;SDS011;12831;52.392;13.066;2023-12-28T12:48:33;4.68;;;1.92;;
14074;SDS011;12831;52.392;13.066;2023-12-28T12:51:01;4.13;;;2.10;;
14074;SDS011;12831;52.392;13.066;2023-12-28T12:53:32;6.30;;;2.10;;
14074;SDS011;12831;52.392;13.066;2023-12-28T12:55:58;3.60;;;1.50;;
14074;SDS011;12831;52.392;13.066;2023-12-28T12:58:25;4.72;;;2.03;;
14074;SDS011;12831;52.392;13.066;2023-12-28T13:00:52;3.38;;;1.65;;
14074;SDS011;12831;52.392;13.066;2023-12-28T13:03:19;5.03;;;1.40;;
14074;SDS011;12831;52.392;13.066;2023-12-28T13:05:46;4.82;;;1.80;;
14074;SDS011;12831;52.392;13.066;2023-12-28T13:08:12;5.25;;;2.10;;
14074;SDS011;12831;52.392;13.066;2023-12-28T13:10:38;3.72;;;1.75;;
14074;SDS011;12831;52.392;13.066;2023-12-28T13:13:13;2.40;;;1.30;;
14074;SDS011;12831;52.392;13.066;2023-12-28T13:15:39;3.55;;;1.60;;
14074;SDS011;12831;52.392;13.066;2023-12-28T13:18:05;3.58;;;1.77;;
14074;SDS011;12831;52.392;13.066;2023-12-28T13:20:32;6.13;;;2.72;;
14074;SDS011;12831;52.392;13.066;2023-12-28T13:22:59;7.65;;;1.88;;
14074;SDS011;12831;52.392;13.066;2023-12-28T13:25:28;3.47;;;1.65;;
14074;SDS011;12831;52.392;13.066;2023-12-28T13:27:54;3.70;;;1.45;;
14074;SDS011;12831;52.392;13.066;2023-12-28T13:30:20;4.03;;;1.95;;
14074;SDS011;12831;52.392;13.066;2023-12-28T13:32:47;4.93;;;1.63;;
14074;SDS011;12831;52.392;13.066;2023-12-28T13:35:14;5.82;;;2.35;;
14074;SDS011;12831;52.392;13.066;2023-12-28T13:37:40;2.50;;;1.30;;
14074;SDS011;12831;52.392;13.066;2023-12-28T13:40:06;3.03;;;1.55;;
14074;SDS011;12831;52.392;13.066;2023-12-28T13:42:33;3.38;;;1.85;;
14074;SDS011;12831;52.392;13.066;2023-12-28T13:44:59;7.00;;;1.45;;
14074;SDS011;12831;52.392;13.066;2023-12-28T13:47:26;5.68;;;1.50;;
14074;SDS011;12831;52.392;13.066;2023-12-28T13:49:52;13.82;;;1.63;;
14074;SDS011;12831;52.392;13.066;2023-12-28T13:52:18;4.05;;;1.52;;
14074;SDS011;12831;52.392;13.066;2023-12-28T13:54:44;4.22;;;1.48;;
14074;SDS011;12831;52.392;13.066;2023-12-28T13:57:10;3.38;;;1.70;;
14074;SDS011;12831;52.392;13.066;2023-12-28T13:59:36;4.60;;;1.55;;
14074;SDS011;12831;52.392;13.066;2023-12-28T14:02:02;4.00;;;1.77;;
14074;SDS011;12831;52.392;13.066;2023-12-28T14:04:29;3.42;;;1.45;;
14074;SDS011;12831;52.392;13.066;2023-12-28T14:06:55;4.15;;;1.92;;
14074;SDS011;12831;52.392;13.066;2023-12-28T14:09:23;4.32;;;2.10;;
14074;SDS011;12831;52.392;13.066;2023-12-28T14:11:50;3.38;;;1.92;;
14074;SDS011;12831;52.392;13.066;2023-12-28T14:14:19;3.58;;;1.52;;
14074;SDS011;12831;52.392;13.066;2023-12-28T14:16:47;3.65;;;1.50;;
14074;SDS011;12831;52.392;13.066;2023-12-28T14:19:13;6.35;;;2.28;;
14074;SDS011;12831;52.392;13.066;2023-12-28T14:21:40;5.35;;;1.80;;
14074;SDS011;12831;52.392;13.066;2023-12-28T14:24:06;3.75;;;2.00;;
14074;SDS011;12831;52.392;13.066;2023-12-28T14:26:32;3.80;;;2.03;;
14074;SDS011;12831;52.392;13.066;2023-12-28T14:29:02;3.58;;;1.95;;
14074;SDS011;12831;52.392;13.066;2023-12-28T14:31:30;4.47;;;1.33;;
14074;SDS011;12831;52.392;13.066;2023-12-28T14:33:59;6.97;;;2.22;;
14074;SDS011;12831;52.392;13.066;2023-12-28T14:36:30;4.80;;;2.17;;
14074;SDS011;12831;52.392;13.066;2023-12-28T14:39:00;6.35;;;2.00;;